sensor_id;sensor_type;location;lat;lon;timestamp;temperature;humidity
67279;DHT22;54193;53.746;10.058;2023-07-02T00:01:21;14.22;91.35
67279;DHT22;54193;53.746;10.058;2023-07-02T00:04:07;14.19;91.43
67279;DHT22;54193;53.746;10.058;2023-07-02T00:06:55;14.18;91.64
67279;DHT22;54193;53.746;10.058;2023-07-02T00:09:41;14.22;91.41
67279;DHT22;54193;53.746;10.058;2023-07-02T00:12:27;14.11;91.51
67279;DHT22;54193;53.746;10.058;2023-07-02T00:15:12;14.05;91.61
67279;DHT22;54193;53.746;10.058;2023-07-02T00:17:58;14.08;91.77
67279;DHT22;54193;53.746;10.058;2023-07-02T00:20:44;14.02;91.94
67279;DHT22;54193;53.746;10.058;2023-07-02T00:23:29;14.04;91.76
67279;DHT22;54193;53.746;10.058;2023-07-02T00:26:15;14.05;91.90
67279;DHT22;54193;53.746;10.058;2023-07-02T00:29:01;14.11;91.70
67279;DHT22;54193;53.746;10.058;2023-07-02T00:31:49;14.15;91.54
67279;DHT22;54193;53.746;10.058;2023-07-02T00:34:35;14.24;91.48
67279;DHT22;54193;53.746;10.058;2023-07-02T00:37:20;14.28;91.11
67279;DHT22;54193;53.746;10.058;2023-07-02T00:40:06;14.32;90.75
67279;DHT22;54193;53.746;10.058;2023-07-02T00:42:52;14.35;90.83
67279;DHT22;54193;53.746;10.058;2023-07-02T00:45:39;14.36;90.57
67279;DHT22;54193;53.746;10.058;2023-07-02T00:48:25;14.39;90.52
67279;DHT22;54193;53.746;10.058;2023-07-02T00:51:20;14.40;90.43
67279;DHT22;54193;53.746;10.058;2023-07-02T00:54:05;14.40;90.31
67279;DHT22;54193;53.746;10.058;2023-07-02T00:56:51;14.43;90.28
67279;DHT22;54193;53.746;10.058;2023-07-02T00:59:37;14.45;90.27
67279;DHT22;54193;53.746;10.058;2023-07-02T01:02:23;14.45;90.28
67279;DHT22;54193;53.746;10.058;2023-07-02T01:05:15;14.49;90.14
67279;DHT22;54193;53.746;10.058;2023-07-02T01:08:04;14.47;90.28
67279;DHT22;54193;53.746;10.058;2023-07-02T01:10:50;14.49;90.04
67279;DHT22;54193;53.746;10.058;2023-07-02T01:13:36;14.52;90.06
67279;DHT22;54193;53.746;10.058;2023-07-02T01:16:22;14.59;89.85
67279;DHT22;54193;53.746;10.058;2023-07-02T01:19:11;14.53;89.91
67279;DHT22;54193;53.746;10.058;2023-07-02T01:21:59;14.45;90.08
67279;DHT22;54193;53.746;10.058;2023-07-02T01:24:46;14.37;90.55
67279;DHT22;54193;53.746;10.058;2023-07-02T01:27:33;14.33;90.47
67279;DHT22;54193;53.746;10.058;2023-07-02T01:30:20;14.36;90.73
67279;DHT22;54193;53.746;10.058;2023-07-02T01:33:06;14.43;90.33
67279;DHT22;54193;53.746;10.058;2023-07-02T01:35:52;14.46;90.30
67279;DHT22;54193;53.746;10.058;2023-07-02T01:38:37;14.52;90.34
67279;DHT22;54193;53.746;10.058;2023-07-02T01:41:23;14.53;90.09
67279;DHT22;54193;53.746;10.058;2023-07-02T01:44:08;14.57;89.86
67279;DHT22;54193;53.746;10.058;2023-07-02T01:46:54;14.59;89.94
67279;DHT22;54193;53.746;10.058;2023-07-02T01:49:41;14.59;89.68
67279;DHT22;54193;53.746;10.058;2023-07-02T01:52:27;14.62;89.89
67279;DHT22;54193;53.746;10.058;2023-07-02T01:55:13;14.59;89.63
67279;DHT22;54193;53.746;10.058;2023-07-02T01:57:58;14.62;89.84
67279;DHT22;54193;53.746;10.058;2023-07-02T02:00:44;14.62;89.72
67279;DHT22;54193;53.746;10.058;2023-07-02T02:03:30;14.62;89.88
67279;DHT22;54193;53.746;10.058;2023-07-02T02:06:15;14.55;89.67
67279;DHT22;54193;53.746;10.058;2023-07-02T02:09:01;14.47;90.04
67279;DHT22;54193;53.746;10.058;2023-07-02T02:11:49;14.42;90.31
67279;DHT22;54193;53.746;10.058;2023-07-02T02:14:36;14.36;90.27
67279;DHT22;54193;53.746;10.058;2023-07-02T02:17:21;14.37;90.18
67279;DHT22;54193;53.746;10.058;2023-07-02T02:20:09;14.33;90.14
67279;DHT22;54193;53.746;10.058;2023-07-02T02:22:55;14.26;90.46
67279;DHT22;54193;53.746;10.058;2023-07-02T02:25:40;14.24;90.47
67279;DHT22;54193;53.746;10.058;2023-07-02T02:28:26;14.35;90.15
67279;DHT22;54193;53.746;10.058;2023-07-02T02:31:12;14.25;90.49
67279;DHT22;54193;53.746;10.058;2023-07-02T02:33:57;14.30;90.40
67279;DHT22;54193;53.746;10.058;2023-07-02T02:36:43;14.42;89.89
67279;DHT22;54193;53.746;10.058;2023-07-02T02:39:29;14.36;89.95
67279;DHT22;54193;53.746;10.058;2023-07-02T02:42:14;14.36;90.07
67279;DHT22;54193;53.746;10.058;2023-07-02T02:45:00;14.35;90.40
67279;DHT22;54193;53.746;10.058;2023-07-02T02:47:46;14.46;90.04
67279;DHT22;54193;53.746;10.058;2023-07-02T02:50:32;14.45;89.63
67279;DHT22;54193;53.746;10.058;2023-07-02T02:53:17;14.36;89.75
67279;DHT22;54193;53.746;10.058;2023-07-02T02:56:03;14.26;90.01
67279;DHT22;54193;53.746;10.058;2023-07-02T02:58:49;14.21;89.90
67279;DHT22;54193;53.746;10.058;2023-07-02T03:01:34;14.17;90.20
67279;DHT22;54193;53.746;10.058;2023-07-02T03:04:20;14.12;90.17
67279;DHT22;54193;53.746;10.058;2023-07-02T03:07:10;14.08;90.29
67279;DHT22;54193;53.746;10.058;2023-07-02T03:09:55;14.07;90.37
67279;DHT22;54193;53.746;10.058;2023-07-02T03:12:41;14.17;90.09
67279;DHT22;54193;53.746;10.058;2023-07-02T03:15:27;14.24;90.20
67279;DHT22;54193;53.746;10.058;2023-07-02T03:18:12;14.35;89.51
67279;DHT22;54193;53.746;10.058;2023-07-02T03:20:59;14.25;89.76
67279;DHT22;54193;53.746;10.058;2023-07-02T03:23:44;14.15;89.96
67279;DHT22;54193;53.746;10.058;2023-07-02T03:26:31;14.12;90.05
67279;DHT22;54193;53.746;10.058;2023-07-02T03:29:17;14.15;89.87
67279;DHT22;54193;53.746;10.058;2023-07-02T03:32:06;14.08;90.08
67279;DHT22;54193;53.746;10.058;2023-07-02T03:34:51;14.11;90.11
67279;DHT22;54193;53.746;10.058;2023-07-02T03:37:37;14.11;90.02
67279;DHT22;54193;53.746;10.058;2023-07-02T03:40:23;14.05;90.07
67279;DHT22;54193;53.746;10.058;2023-07-02T03:43:08;14.07;90.02
67279;DHT22;54193;53.746;10.058;2023-07-02T03:45:57;14.14;89.82
67279;DHT22;54193;53.746;10.058;2023-07-02T03:48:43;14.12;89.46
67279;DHT22;54193;53.746;10.058;2023-07-02T03:51:30;14.08;89.76
67279;DHT22;54193;53.746;10.058;2023-07-02T03:54:15;14.18;89.27
67279;DHT22;54193;53.746;10.058;2023-07-02T03:57:01;14.21;89.30
67279;DHT22;54193;53.746;10.058;2023-07-02T03:59:47;14.19;89.48
67279;DHT22;54193;53.746;10.058;2023-07-02T04:02:33;14.18;89.39
67279;DHT22;54193;53.746;10.058;2023-07-02T04:05:18;14.24;89.21
67279;DHT22;54193;53.746;10.058;2023-07-02T04:08:05;14.28;89.18
67279;DHT22;54193;53.746;10.058;2023-07-02T04:10:51;14.24;89.08
67279;DHT22;54193;53.746;10.058;2023-07-02T04:13:37;14.39;88.35
67279;DHT22;54193;53.746;10.058;2023-07-02T04:16:23;14.49;88.22
67279;DHT22;54193;53.746;10.058;2023-07-02T04:19:08;14.53;87.39
67279;DHT22;54193;53.746;10.058;2023-07-02T04:21:54;14.57;86.77
67279;DHT22;54193;53.746;10.058;2023-07-02T04:24:39;14.59;86.89
67279;DHT22;54193;53.746;10.058;2023-07-02T04:27:25;14.62;86.47
67279;DHT22;54193;53.746;10.058;2023-07-02T04:30:12;14.76;86.05
67279;DHT22;54193;53.746;10.058;2023-07-02T04:32:57;14.80;86.07
67279;DHT22;54193;53.746;10.058;2023-07-02T04:35:43;14.70;85.86
67279;DHT22;54193;53.746;10.058;2023-07-02T04:38:29;14.73;85.77
67279;DHT22;54193;53.746;10.058;2023-07-02T04:41:14;14.63;86.04
67279;DHT22;54193;53.746;10.058;2023-07-02T04:44:00;14.64;85.70
67279;DHT22;54193;53.746;10.058;2023-07-02T04:46:46;14.69;85.38
67279;DHT22;54193;53.746;10.058;2023-07-02T04:49:32;14.73;84.97
67279;DHT22;54193;53.746;10.058;2023-07-02T04:52:17;14.81;84.62
67279;DHT22;54193;53.746;10.058;2023-07-02T04:55:03;14.81;84.88
67279;DHT22;54193;53.746;10.058;2023-07-02T04:57:49;14.83;84.65
67279;DHT22;54193;53.746;10.058;2023-07-02T05:00:35;14.91;84.74
67279;DHT22;54193;53.746;10.058;2023-07-02T05:03:20;15.07;84.10
67279;DHT22;54193;53.746;10.058;2023-07-02T05:06:06;15.29;83.66
67279;DHT22;54193;53.746;10.058;2023-07-02T05:08:52;15.59;82.90
67279;DHT22;54193;53.746;10.058;2023-07-02T05:11:38;15.73;82.26
67279;DHT22;54193;53.746;10.058;2023-07-02T05:14:24;15.73;82.19
67279;DHT22;54193;53.746;10.058;2023-07-02T05:17:09;15.82;81.95
67279;DHT22;54193;53.746;10.058;2023-07-02T05:19:55;15.74;81.60
67279;DHT22;54193;53.746;10.058;2023-07-02T05:22:41;15.71;81.66
67279;DHT22;54193;53.746;10.058;2023-07-02T05:25:26;15.70;81.65
67279;DHT22;54193;53.746;10.058;2023-07-02T05:28:12;15.65;81.69
67279;DHT22;54193;53.746;10.058;2023-07-02T05:30:57;15.63;81.81
67279;DHT22;54193;53.746;10.058;2023-07-02T05:33:43;15.59;81.88
67279;DHT22;54193;53.746;10.058;2023-07-02T05:36:29;15.50;81.54
67279;DHT22;54193;53.746;10.058;2023-07-02T05:39:14;15.40;81.50
67279;DHT22;54193;53.746;10.058;2023-07-02T05:42:00;15.40;81.80
67279;DHT22;54193;53.746;10.058;2023-07-02T05:44:46;15.38;81.98
67279;DHT22;54193;53.746;10.058;2023-07-02T05:47:31;15.46;82.09
67279;DHT22;54193;53.746;10.058;2023-07-02T05:50:17;15.52;81.70
67279;DHT22;54193;53.746;10.058;2023-07-02T05:53:02;15.57;81.54
67279;DHT22;54193;53.746;10.058;2023-07-02T05:55:48;15.67;81.52
67279;DHT22;54193;53.746;10.058;2023-07-02T05:58:34;15.76;80.81
67279;DHT22;54193;53.746;10.058;2023-07-02T06:01:19;15.84;80.63
67279;DHT22;54193;53.746;10.058;2023-07-02T06:04:05;16.01;79.32
67279;DHT22;54193;53.746;10.058;2023-07-02T06:06:51;16.17;79.09
67279;DHT22;54193;53.746;10.058;2023-07-02T06:09:36;16.28;79.04
67279;DHT22;54193;53.746;10.058;2023-07-02T06:12:22;16.59;78.16
67279;DHT22;54193;53.746;10.058;2023-07-02T06:15:08;16.86;77.63
67279;DHT22;54193;53.746;10.058;2023-07-02T06:17:54;16.96;76.44
67279;DHT22;54193;53.746;10.058;2023-07-02T06:20:39;17.14;76.02
67279;DHT22;54193;53.746;10.058;2023-07-02T06:23:25;17.56;74.78
67279;DHT22;54193;53.746;10.058;2023-07-02T06:26:11;17.59;74.02
67279;DHT22;54193;53.746;10.058;2023-07-02T06:28:56;17.93;73.42
67279;DHT22;54193;53.746;10.058;2023-07-02T06:31:43;17.66;74.17
67279;DHT22;54193;53.746;10.058;2023-07-02T06:34:29;18.07;73.24
67279;DHT22;54193;53.746;10.058;2023-07-02T06:37:15;18.43;72.62
67279;DHT22;54193;53.746;10.058;2023-07-02T06:40:00;18.07;72.71
67279;DHT22;54193;53.746;10.058;2023-07-02T06:42:46;18.23;72.35
67279;DHT22;54193;53.746;10.058;2023-07-02T06:45:31;18.59;71.62
67279;DHT22;54193;53.746;10.058;2023-07-02T06:48:17;18.62;70.89
67279;DHT22;54193;53.746;10.058;2023-07-02T06:51:06;18.77;70.37
67279;DHT22;54193;53.746;10.058;2023-07-02T06:53:53;18.81;69.75
67279;DHT22;54193;53.746;10.058;2023-07-02T06:56:38;18.01;71.20
67279;DHT22;54193;53.746;10.058;2023-07-02T06:59:24;18.64;69.90
67279;DHT22;54193;53.746;10.058;2023-07-02T07:02:10;18.88;68.95
67279;DHT22;54193;53.746;10.058;2023-07-02T07:04:55;18.31;70.29
67279;DHT22;54193;53.746;10.058;2023-07-02T07:07:41;18.26;71.02
67279;DHT22;54193;53.746;10.058;2023-07-02T07:10:27;18.03;71.71
67279;DHT22;54193;53.746;10.058;2023-07-02T07:13:13;17.99;71.13
67279;DHT22;54193;53.746;10.058;2023-07-02T07:15:59;17.96;71.31
67279;DHT22;54193;53.746;10.058;2023-07-02T07:18:44;17.87;70.82
67279;DHT22;54193;53.746;10.058;2023-07-02T07:21:30;17.52;73.03
67279;DHT22;54193;53.746;10.058;2023-07-02T07:24:16;17.21;73.32
67279;DHT22;54193;53.746;10.058;2023-07-02T07:27:02;16.62;74.71
67279;DHT22;54193;53.746;10.058;2023-07-02T07:29:47;16.62;73.29
67279;DHT22;54193;53.746;10.058;2023-07-02T07:32:33;16.75;72.15
67279;DHT22;54193;53.746;10.058;2023-07-02T07:35:20;16.96;72.03
67279;DHT22;54193;53.746;10.058;2023-07-02T07:38:06;16.80;72.10
67279;DHT22;54193;53.746;10.058;2023-07-02T07:40:52;16.89;74.12
67279;DHT22;54193;53.746;10.058;2023-07-02T07:43:38;16.96;75.38
67279;DHT22;54193;53.746;10.058;2023-07-02T07:46:23;16.76;76.49
67279;DHT22;54193;53.746;10.058;2023-07-02T07:49:09;16.97;76.81
67279;DHT22;54193;53.746;10.058;2023-07-02T07:51:55;17.27;75.79
67279;DHT22;54193;53.746;10.058;2023-07-02T07:54:40;17.53;72.85
67279;DHT22;54193;53.746;10.058;2023-07-02T07:57:26;18.03;72.27
67279;DHT22;54193;53.746;10.058;2023-07-02T08:00:12;18.37;71.18
67279;DHT22;54193;53.746;10.058;2023-07-02T08:02:58;19.07;70.28
67279;DHT22;54193;53.746;10.058;2023-07-02T08:05:45;19.13;66.34
67279;DHT22;54193;53.746;10.058;2023-07-02T08:08:30;18.68;67.12
67279;DHT22;54193;53.746;10.058;2023-07-02T08:11:16;18.81;66.83
67279;DHT22;54193;53.746;10.058;2023-07-02T08:14:01;18.98;66.29
67279;DHT22;54193;53.746;10.058;2023-07-02T08:16:47;18.52;67.15
67279;DHT22;54193;53.746;10.058;2023-07-02T08:19:33;18.35;65.32
67279;DHT22;54193;53.746;10.058;2023-07-02T08:22:18;18.28;66.60
67279;DHT22;54193;53.746;10.058;2023-07-02T08:25:05;18.38;67.67
67279;DHT22;54193;53.746;10.058;2023-07-02T08:27:51;17.61;70.68
67279;DHT22;54193;53.746;10.058;2023-07-02T08:30:36;17.25;71.53
67279;DHT22;54193;53.746;10.058;2023-07-02T08:33:22;17.18;74.03
67279;DHT22;54193;53.746;10.058;2023-07-02T08:36:08;17.71;71.57
67279;DHT22;54193;53.746;10.058;2023-07-02T08:38:53;17.69;70.41
67279;DHT22;54193;53.746;10.058;2023-07-02T08:41:46;18.58;69.45
67279;DHT22;54193;53.746;10.058;2023-07-02T08:44:31;19.30;67.84
67279;DHT22;54193;53.746;10.058;2023-07-02T08:47:17;19.46;64.46
67279;DHT22;54193;53.746;10.058;2023-07-02T08:50:03;19.40;64.13
67279;DHT22;54193;53.746;10.058;2023-07-02T08:52:53;20.23;66.42
67279;DHT22;54193;53.746;10.058;2023-07-02T08:55:39;19.27;64.96
67279;DHT22;54193;53.746;10.058;2023-07-02T08:58:25;19.82;62.49
67279;DHT22;54193;53.746;10.058;2023-07-02T09:01:12;19.96;62.93
67279;DHT22;54193;53.746;10.058;2023-07-02T09:03:59;19.85;62.80
67279;DHT22;54193;53.746;10.058;2023-07-02T09:06:48;20.33;63.38
67279;DHT22;54193;53.746;10.058;2023-07-02T09:09:48;20.75;62.29
67279;DHT22;54193;53.746;10.058;2023-07-02T09:12:33;20.30;61.82
67279;DHT22;54193;53.746;10.058;2023-07-02T09:15:20;20.22;64.23
67279;DHT22;54193;53.746;10.058;2023-07-02T09:21:00;19.20;64.12
67279;DHT22;54193;53.746;10.058;2023-07-02T09:23:46;18.72;65.71
67279;DHT22;54193;53.746;10.058;2023-07-02T09:26:32;18.40;66.90
67279;DHT22;54193;53.746;10.058;2023-07-02T09:29:25;17.75;70.27
67279;DHT22;54193;53.746;10.058;2023-07-02T09:32:24;17.46;72.85
67279;DHT22;54193;53.746;10.058;2023-07-02T09:35:09;17.38;72.94
67279;DHT22;54193;53.746;10.058;2023-07-02T09:37:55;17.35;72.69
67279;DHT22;54193;53.746;10.058;2023-07-02T09:40:51;17.38;72.03
67279;DHT22;54193;53.746;10.058;2023-07-02T09:43:37;17.71;71.62
67279;DHT22;54193;53.746;10.058;2023-07-02T09:46:23;18.00;71.18
67279;DHT22;54193;53.746;10.058;2023-07-02T09:49:13;18.64;70.65
67279;DHT22;54193;53.746;10.058;2023-07-02T09:52:04;18.85;68.13
67279;DHT22;54193;53.746;10.058;2023-07-02T09:54:50;19.75;69.55
67279;DHT22;54193;53.746;10.058;2023-07-02T09:57:36;20.22;66.67
67279;DHT22;54193;53.746;10.058;2023-07-02T10:00:21;20.40;64.02
67279;DHT22;54193;53.746;10.058;2023-07-02T10:03:07;20.84;62.41
67279;DHT22;54193;53.746;10.058;2023-07-02T10:06:02;20.34;64.04
67279;DHT22;54193;53.746;10.058;2023-07-02T10:08:55;20.14;65.28
67279;DHT22;54193;53.746;10.058;2023-07-02T10:11:41;19.44;67.53
67279;DHT22;54193;53.746;10.058;2023-07-02T10:14:26;18.82;66.43
67279;DHT22;54193;53.746;10.058;2023-07-02T10:20:11;19.75;60.27
67279;DHT22;54193;53.746;10.058;2023-07-02T10:22:57;20.87;58.47
67279;DHT22;54193;53.746;10.058;2023-07-02T10:25:43;20.34;57.41
67279;DHT22;54193;53.746;10.058;2023-07-02T10:28:29;20.27;58.46
67279;DHT22;54193;53.746;10.058;2023-07-02T10:31:19;20.22;58.43
67279;DHT22;54193;53.746;10.058;2023-07-02T10:34:05;20.65;56.37
67279;DHT22;54193;53.746;10.058;2023-07-02T10:36:54;20.72;56.47
67279;DHT22;54193;53.746;10.058;2023-07-02T10:39:40;20.44;55.42
67279;DHT22;54193;53.746;10.058;2023-07-02T10:42:25;20.54;55.00
67279;DHT22;54193;53.746;10.058;2023-07-02T10:45:11;20.43;55.37
67279;DHT22;54193;53.746;10.058;2023-07-02T10:47:57;20.94;54.39
67279;DHT22;54193;53.746;10.058;2023-07-02T10:50:43;20.85;53.54
67279;DHT22;54193;53.746;10.058;2023-07-02T10:53:28;20.88;53.52
67279;DHT22;54193;53.746;10.058;2023-07-02T10:56:17;20.95;54.84
67279;DHT22;54193;53.746;10.058;2023-07-02T10:59:02;21.12;53.09
67279;DHT22;54193;53.746;10.058;2023-07-02T11:01:50;20.79;53.20
67279;DHT22;54193;53.746;10.058;2023-07-02T11:04:36;20.32;54.64
67279;DHT22;54193;53.746;10.058;2023-07-02T11:07:23;20.34;56.50
67279;DHT22;54193;53.746;10.058;2023-07-02T11:10:10;20.19;54.55
67279;DHT22;54193;53.746;10.058;2023-07-02T11:13:19;20.22;52.87
67279;DHT22;54193;53.746;10.058;2023-07-02T11:16:05;20.51;51.65
67279;DHT22;54193;53.746;10.058;2023-07-02T11:18:52;20.82;53.41
67279;DHT22;54193;53.746;10.058;2023-07-02T11:21:38;20.70;54.65
67279;DHT22;54193;53.746;10.058;2023-07-02T11:24:35;20.17;55.89
67279;DHT22;54193;53.746;10.058;2023-07-02T11:27:21;19.93;56.35
67279;DHT22;54193;53.746;10.058;2023-07-02T11:30:10;18.76;64.57
67279;DHT22;54193;53.746;10.058;2023-07-02T11:32:56;18.07;70.77
67279;DHT22;54193;53.746;10.058;2023-07-02T11:35:42;17.97;72.08
67279;DHT22;54193;53.746;10.058;2023-07-02T11:38:29;17.93;69.47
67279;DHT22;54193;53.746;10.058;2023-07-02T11:41:14;18.10;67.81
67279;DHT22;54193;53.746;10.058;2023-07-02T11:44:00;18.34;67.42
67279;DHT22;54193;53.746;10.058;2023-07-02T11:46:46;18.38;65.88
67279;DHT22;54193;53.746;10.058;2023-07-02T11:49:32;18.45;64.03
67279;DHT22;54193;53.746;10.058;2023-07-02T11:52:18;18.83;63.84
67279;DHT22;54193;53.746;10.058;2023-07-02T11:55:04;19.40;62.43
67279;DHT22;54193;53.746;10.058;2023-07-02T11:57:50;19.54;60.80
67279;DHT22;54193;53.746;10.058;2023-07-02T12:00:36;19.46;60.27
67279;DHT22;54193;53.746;10.058;2023-07-02T12:03:21;19.76;63.02
67279;DHT22;54193;53.746;10.058;2023-07-02T12:06:07;19.99;59.73
67279;DHT22;54193;53.746;10.058;2023-07-02T12:08:52;19.97;59.11
67279;DHT22;54193;53.746;10.058;2023-07-02T12:11:38;19.40;59.41
67279;DHT22;54193;53.746;10.058;2023-07-02T12:14:24;19.16;61.05
67279;DHT22;54193;53.746;10.058;2023-07-02T12:17:10;18.92;61.53
67279;DHT22;54193;53.746;10.058;2023-07-02T12:19:58;19.41;61.86
67279;DHT22;54193;53.746;10.058;2023-07-02T12:22:44;19.92;61.99
67279;DHT22;54193;53.746;10.058;2023-07-02T12:25:30;19.72;60.33
67279;DHT22;54193;53.746;10.058;2023-07-02T12:28:15;19.71;63.10
67279;DHT22;54193;53.746;10.058;2023-07-02T12:31:01;19.24;61.95
67279;DHT22;54193;53.746;10.058;2023-07-02T12:33:48;19.30;61.51
67279;DHT22;54193;53.746;10.058;2023-07-02T12:36:33;19.20;61.98
67279;DHT22;54193;53.746;10.058;2023-07-02T12:39:19;19.82;63.47
67279;DHT22;54193;53.746;10.058;2023-07-02T12:42:04;20.14;59.64
67279;DHT22;54193;53.746;10.058;2023-07-02T12:44:50;19.62;61.13
67279;DHT22;54193;53.746;10.058;2023-07-02T12:47:36;19.11;62.57
67279;DHT22;54193;53.746;10.058;2023-07-02T12:50:21;18.30;66.40
67279;DHT22;54193;53.746;10.058;2023-07-02T12:53:07;18.66;61.57
67279;DHT22;54193;53.746;10.058;2023-07-02T12:55:53;19.06;59.52
67279;DHT22;54193;53.746;10.058;2023-07-02T12:58:40;19.69;58.00
67279;DHT22;54193;53.746;10.058;2023-07-02T13:01:25;19.87;56.10
67279;DHT22;54193;53.746;10.058;2023-07-02T13:04:11;20.16;56.54
67279;DHT22;54193;53.746;10.058;2023-07-02T13:06:57;20.39;54.08
67279;DHT22;54193;53.746;10.058;2023-07-02T13:09:42;20.37;52.41
67279;DHT22;54193;53.746;10.058;2023-07-02T13:12:28;20.19;52.09
67279;DHT22;54193;53.746;10.058;2023-07-02T13:15:14;19.92;52.52
67279;DHT22;54193;53.746;10.058;2023-07-02T13:18:00;19.92;52.59
67279;DHT22;54193;53.746;10.058;2023-07-02T13:20:46;20.34;50.71
67279;DHT22;54193;53.746;10.058;2023-07-02T13:23:31;20.67;51.25
67279;DHT22;54193;53.746;10.058;2023-07-02T13:26:17;20.51;50.01
67279;DHT22;54193;53.746;10.058;2023-07-02T13:29:03;20.33;49.60
67279;DHT22;54193;53.746;10.058;2023-07-02T13:31:48;20.92;50.61
67279;DHT22;54193;53.746;10.058;2023-07-02T13:34:34;20.88;48.68
67279;DHT22;54193;53.746;10.058;2023-07-02T13:37:19;21.19;49.60
67279;DHT22;54193;53.746;10.058;2023-07-02T13:40:06;21.10;48.69
67279;DHT22;54193;53.746;10.058;2023-07-02T13:42:54;20.37;49.91
67279;DHT22;54193;53.746;10.058;2023-07-02T13:45:39;20.34;53.30
67279;DHT22;54193;53.746;10.058;2023-07-02T13:48:25;20.27;53.57
67279;DHT22;54193;53.746;10.058;2023-07-02T13:51:10;20.12;52.98
67279;DHT22;54193;53.746;10.058;2023-07-02T13:53:56;19.78;53.57
67279;DHT22;54193;53.746;10.058;2023-07-02T13:56:42;19.90;52.90
67279;DHT22;54193;53.746;10.058;2023-07-02T13:59:27;20.00;53.16
67279;DHT22;54193;53.746;10.058;2023-07-02T14:02:13;20.05;52.80
67279;DHT22;54193;53.746;10.058;2023-07-02T14:04:58;20.26;53.77
67279;DHT22;54193;53.746;10.058;2023-07-02T14:07:44;20.30;52.01
67279;DHT22;54193;53.746;10.058;2023-07-02T14:10:30;20.40;53.25
67279;DHT22;54193;53.746;10.058;2023-07-02T14:13:15;20.85;52.98
67279;DHT22;54193;53.746;10.058;2023-07-02T14:16:01;20.81;50.62
67279;DHT22;54193;53.746;10.058;2023-07-02T14:18:47;20.64;49.33
67279;DHT22;54193;53.746;10.058;2023-07-02T14:21:33;20.51;49.91
67279;DHT22;54193;53.746;10.058;2023-07-02T14:24:18;20.67;49.97
67279;DHT22;54193;53.746;10.058;2023-07-02T14:27:04;20.58;49.57
67279;DHT22;54193;53.746;10.058;2023-07-02T14:29:50;20.68;50.81
67279;DHT22;54193;53.746;10.058;2023-07-02T14:32:36;19.96;52.03
67279;DHT22;54193;53.746;10.058;2023-07-02T14:35:21;19.58;53.09
67279;DHT22;54193;53.746;10.058;2023-07-02T14:38:13;19.47;55.96
67279;DHT22;54193;53.746;10.058;2023-07-02T14:40:58;19.47;54.65
67279;DHT22;54193;53.746;10.058;2023-07-02T14:43:45;19.72;54.61
67279;DHT22;54193;53.746;10.058;2023-07-02T14:46:31;19.95;53.73
67279;DHT22;54193;53.746;10.058;2023-07-02T14:49:17;19.76;53.24
67279;DHT22;54193;53.746;10.058;2023-07-02T14:52:03;20.37;51.98
67279;DHT22;54193;53.746;10.058;2023-07-02T14:54:49;20.77;52.00
67279;DHT22;54193;53.746;10.058;2023-07-02T14:57:34;21.18;50.35
67279;DHT22;54193;53.746;10.058;2023-07-02T15:00:20;21.33;49.34
67279;DHT22;54193;53.746;10.058;2023-07-02T15:03:06;21.30;50.32
67279;DHT22;54193;53.746;10.058;2023-07-02T15:05:52;21.05;50.87
67279;DHT22;54193;53.746;10.058;2023-07-02T15:08:38;21.12;51.43
67279;DHT22;54193;53.746;10.058;2023-07-02T15:11:24;20.79;50.98
67279;DHT22;54193;53.746;10.058;2023-07-02T15:14:09;20.71;50.91
67279;DHT22;54193;53.746;10.058;2023-07-02T15:16:55;19.51;54.18
67279;DHT22;54193;53.746;10.058;2023-07-02T15:19:41;19.65;54.66
67279;DHT22;54193;53.746;10.058;2023-07-02T15:22:26;19.69;54.24
67279;DHT22;54193;53.746;10.058;2023-07-02T15:25:12;19.32;55.67
67279;DHT22;54193;53.746;10.058;2023-07-02T15:27:58;19.43;55.55
67279;DHT22;54193;53.746;10.058;2023-07-02T15:30:43;19.99;54.30
67279;DHT22;54193;53.746;10.058;2023-07-02T15:33:29;19.86;54.07
67279;DHT22;54193;53.746;10.058;2023-07-02T15:36:15;19.64;54.73
67279;DHT22;54193;53.746;10.058;2023-07-02T15:39:02;20.20;53.84
67279;DHT22;54193;53.746;10.058;2023-07-02T15:41:48;19.72;55.66
67279;DHT22;54193;53.746;10.058;2023-07-02T15:44:34;19.38;56.08
67279;DHT22;54193;53.746;10.058;2023-07-02T15:47:20;20.30;52.54
67279;DHT22;54193;53.746;10.058;2023-07-02T15:50:06;20.06;53.76
67279;DHT22;54193;53.746;10.058;2023-07-02T15:52:51;20.44;52.14
67279;DHT22;54193;53.746;10.058;2023-07-02T15:55:37;20.00;53.45
67279;DHT22;54193;53.746;10.058;2023-07-02T15:58:27;19.86;52.25
67279;DHT22;54193;53.746;10.058;2023-07-02T16:01:16;20.36;48.90
67279;DHT22;54193;53.746;10.058;2023-07-02T16:04:01;20.32;51.71
67279;DHT22;54193;53.746;10.058;2023-07-02T16:06:49;19.75;51.34
67279;DHT22;54193;53.746;10.058;2023-07-02T16:09:35;19.41;53.97
67279;DHT22;54193;53.746;10.058;2023-07-02T16:12:20;19.17;54.56
67279;DHT22;54193;53.746;10.058;2023-07-02T16:15:06;19.03;53.89
67279;DHT22;54193;53.746;10.058;2023-07-02T16:17:52;19.35;54.16
67279;DHT22;54193;53.746;10.058;2023-07-02T16:20:38;19.20;54.03
67279;DHT22;54193;53.746;10.058;2023-07-02T16:23:23;19.00;54.52
67279;DHT22;54193;53.746;10.058;2023-07-02T16:26:09;19.28;55.29
67279;DHT22;54193;53.746;10.058;2023-07-02T16:28:57;19.27;55.94
67279;DHT22;54193;53.746;10.058;2023-07-02T16:31:47;19.21;54.32
67279;DHT22;54193;53.746;10.058;2023-07-02T16:34:33;18.79;54.19
67279;DHT22;54193;53.746;10.058;2023-07-02T16:37:18;19.07;54.95
67279;DHT22;54193;53.746;10.058;2023-07-02T16:40:05;19.24;55.26
67279;DHT22;54193;53.746;10.058;2023-07-02T16:42:51;18.89;54.09
67279;DHT22;54193;53.746;10.058;2023-07-02T16:45:36;19.11;54.29
67279;DHT22;54193;53.746;10.058;2023-07-02T16:48:23;18.91;54.98
67279;DHT22;54193;53.746;10.058;2023-07-02T16:51:09;18.68;55.36
67279;DHT22;54193;53.746;10.058;2023-07-02T16:53:55;18.83;56.46
67279;DHT22;54193;53.746;10.058;2023-07-02T16:56:52;19.03;55.82
67279;DHT22;54193;53.746;10.058;2023-07-02T16:59:37;19.31;56.30
67279;DHT22;54193;53.746;10.058;2023-07-02T17:02:23;18.99;57.06
67279;DHT22;54193;53.746;10.058;2023-07-02T17:05:09;18.81;56.12
67279;DHT22;54193;53.746;10.058;2023-07-02T17:07:54;18.66;57.66
67279;DHT22;54193;53.746;10.058;2023-07-02T17:10:40;18.56;56.87
67279;DHT22;54193;53.746;10.058;2023-07-02T17:13:25;18.55;56.67
67279;DHT22;54193;53.746;10.058;2023-07-02T17:16:11;18.59;57.53
67279;DHT22;54193;53.746;10.058;2023-07-02T17:18:57;18.44;57.50